Latest Weather Observations for Giles*

IDW60801

Issued at 1:23 pm WST Saturday 10 December 2022 (issued every 10 minutes, with the page automatically refreshed every 10 minutes)

About weather observations | Map of weather stations | Latest weather observations for WA | Other Formats
Station Details ID: 013017 Name: GILES METEOROLOGICAL OFFICE Lat: -25.03 Lon: 128.30 Height: 598.0 m
Data from the previous 72 hours. | See also: Recent months at Giles*

* Giles observations are collected in the South Australia time zone, which includes daylight saving in the summer period. Therefore, Rain since 9am value is with respect to South Australia local time.

Date/Time
WST
Temp
°C
App
Temp
°C
Dew
Point
°C
Rel
Hum
%
Delta-T
°C
Wind Press
QNH
hPa
Press
MSL
hPa
Rain since
9am
mm
Dir  Spd
km/h
Gust
km/h
Spd
kts
Gust
kts
10/01:00pm 40.4 36.3 7.8 14 19.2 W 19 28 10 15 1009.2 1004.6 0.0
10/12:30pm 40.3 37.3 7.7 14 19.1 WNW 13 24 7 13 1009.7 1005.1 0.0
10/12:00pm 41.0 38.1 8.2 14 19.4 NE 13 24 7 13 1010.2 1005.6 0.0
10/11:30am 40.7 38.8 9.0 15 18.9 SW 9 26 5 14 1010.3 1005.7 0.0
10/11:00am 39.9 38.9 10.2 17 18.0 E 6 20 3 11 1010.8 1006.2 0.0
10/10:30am 39.5 38.7 11.6 19 17.2 N 7 20 4 11 1011.2 1006.6 0.0
10/10:00am 38.0 35.5 11.1 20 16.4 N 15 24 8 13 1011.6 1007.1 0.0
10/09:30am 37.8 33.8 11.7 21 16.0 NNW 24 35 13 19 1011.8 1007.3 0.0
10/09:00am 37.6 34.1 12.3 22 15.7 N 22 33 12 18 1012.0 1007.4 0.0
10/08:30am 36.4 32.8 13.2 25 14.5 N 24 33 13 18 1012.0 1007.4 0.0
10/08:00am 35.9 32.0 13.4 26 14.1 N 26 35 14 19 1011.8 1007.3 0.0
10/07:30am 34.9 31.1 12.5 25 13.8 N 24 32 13 17 1011.8 1007.3 0.0
10/07:00am 34.7 33.6 13.0 27 13.4 NNE 11 17 6 9 1011.6 1007.1 0.0
10/06:30am 33.6 32.5 13.1 29 12.7 NNE 11 17 6 9 1011.4 1006.8 0.0
10/06:00am 31.9 32.5 13.2 32 11.5 NW 2 15 1 8 1011.1 1006.5 0.0
10/05:30am 30.1 31.2 13.4 36 10.2 CALM 0 0 0 0 1010.7 1006.1 0.0
10/05:00am 29.3 29.9 13.1 37 9.9 NW 2 7 1 4 1010.3 1005.7 0.0
10/04:30am 30.2 29.7 12.6 34 10.6 NE 7 11 4 6 1009.8 1005.2 0.0
10/04:00am 29.4 28.8 12.3 34 10.3 ESE 7 15 4 8 1009.4 1004.8 0.0
10/03:30am 30.1 29.6 12.5 34 10.6 ENE 7 15 4 8 1009.3 1004.7 0.0
10/03:00am 30.1 27.8 13.0 35 10.4 ENE 17 22 9 12 1009.3 1004.7 0.0
10/02:30am 30.1 27.4 13.4 36 10.2 ENE 20 28 11 15 1009.5 1004.9 0.0
10/02:00am 30.2 27.5 13.5 36 10.3 ENE 20 26 11 14 1009.8 1005.2 0.0
10/01:30am 29.7 27.5 14.3 39 9.5 ENE 19 24 10 13 1010.0 1005.4 0.0
10/01:00am 29.7 28.7 14.7 40 9.4 E 13 20 7 11 1010.5 1005.9 0.0
10/12:30am 29.8 29.0 15.1 40 9.2 ENE 13 19 7 10 1010.7 1006.1 0.0
10/12:00am 30.0 29.0 14.5 38 9.6 S 13 17 7 9 1011.0 1006.4 0.0
 
Date/Time
WST
Temp
°C
App
Temp
°C
Dew
Point
°C
Rel
Hum
%
Delta-T
°C
Wind Press
QNH
hPa
Press
MSL
hPa
Rain since
9am
mm
Dir  Spd
km/h
Gust
km/h
Spd
kts
Gust
kts
09/11:30pm 30.3 29.8 14.8 39 9.7 S 11 17 6 9 1011.4 1006.8 0.0
09/11:00pm 30.7 28.8 14.3 36 10.2 S 17 24 9 13 1011.5 1006.9 0.0
09/10:30pm 31.2 28.6 14.8 37 10.3 SW 22 32 12 17 1011.7 1007.2 0.0
09/10:00pm 33.1 31.1 12.7 29 12.5 SW 15 24 8 13 1011.8 1007.3 0.0
09/09:30pm 33.9 30.6 11.7 26 13.4 SSW 20 32 11 17 1011.1 1006.5 0.0
09/09:00pm 33.3 30.1 11.8 27 13.0 N 20 30 11 16 1009.9 1005.3 0.0
09/08:30pm 32.9 29.9 12.5 29 12.4 N 20 28 11 15 1009.6 1005.0 0.0
09/08:00pm 33.5 30.5 12.5 28 12.9 N 20 30 11 16 1009.6 1005.0 0.0
09/07:30pm 33.7 29.0 13.2 29 12.7 N 30 41 16 22 1009.4 1004.8 0.0
09/07:00pm 34.4 29.5 12.7 27 13.4 N 30 41 16 22 1009.2 1004.6 0.0
09/06:30pm 35.8 32.1 11.4 23 14.8 NNE 22 28 12 15 1008.7 1004.1 0.0
09/06:00pm 37.3 34.5 11.3 21 15.9 N 17 26 9 14 1008.2 1003.6 0.0
09/05:30pm 39.3 36.8 9.8 17 17.7 N 13 15 7 8 1007.9 1003.3 0.0
09/05:00pm 39.3 34.7 9.8 17 17.8 N 24 32 13 17 1007.5 1002.9 0.0
09/04:30pm 39.7 36.3 9.2 16 18.2 NNW 17 26 9 14 1007.5 1002.9 0.0
09/04:00pm 40.9 36.6 9.2 15 19.1 N 22 32 12 17 1007.4 1002.8 0.0
09/03:30pm 40.5 38.0 9.8 16 18.6 N 13 22 7 12 1007.4 1002.8 0.0
09/03:00pm 40.8 38.0 10.0 16 18.7 N 15 28 8 15 1007.7 1003.1 0.0
09/02:30pm 40.5 38.0 9.8 16 18.5 WSW 13 24 7 13 1007.9 1003.3 0.0
09/02:00pm 40.0 37.4 9.4 16 18.4 NW 13 24 7 13 1008.3 1003.7 0.0
09/01:30pm 40.5 37.3 9.8 16 18.5 NNW 17 28 9 15 1008.6 1004.0 0.0
09/01:00pm 39.1 37.0 9.6 17 17.7 NE 11 20 6 11 1008.9 1004.3 0.0
09/12:30pm 39.5 37.1 9.9 17 17.9 NW 13 24 7 13 1009.5 1004.9 0.0
09/12:00pm 38.6 35.8 10.0 18 17.2 N 15 26 8 14 1009.9 1005.3 0.0
09/11:30am 38.8 35.8 11.8 20 16.7 N 19 32 10 17 1010.4 1005.8 0.0
09/11:00am 39.1 35.8 12.8 21 16.5 N 22 35 12 19 1010.7 1006.1 0.0
09/10:30am 37.6 33.9 11.5 21 16.0 N 22 37 12 20 1011.0 1006.4 0.0
09/10:00am 36.6 32.7 12.1 23 15.1 N 24 37 13 20 1011.3 1006.7 0.0
09/09:30am 35.5 32.1 11.2 23 14.7 NNE 20 32 11 17 1011.5 1006.9 0.0
09/09:00am 35.3 31.8 11.0 23 14.6 NNE 20 30 11 16 1011.5 1006.9 0.0
09/08:30am 35.2 30.9 10.9 23 14.6 NNE 24 32 13 17 1011.6 1007.1 0.0
09/08:00am 33.7 28.9 10.3 24 13.9 NNE 26 35 14 19 1011.6 1007.1 0.0
09/07:30am 33.1 28.7 10.4 25 13.4 NE 24 37 13 20 1011.6 1007.1 0.0
09/07:00am 32.4 28.2 9.9 25 13.2 NE 22 28 12 15 1011.6 1007.1 0.0
09/06:30am 31.3 27.5 8.9 25 12.9 NE 19 26 10 14 1011.4 1006.8 0.0
09/06:00am 29.3 26.8 8.4 27 11.8 E 11 22 6 12 1011.4 1006.8 0.0
09/05:30am 27.5 23.9 9.8 33 10.1 E 19 26 10 14 1011.2 1006.6 0.0
09/05:00am 27.0 24.1 11.1 37 9.3 E 17 28 9 15 1011.1 1006.5 0.0
09/04:30am 26.2 23.4 11.5 40 8.6 ESE 17 24 9 13 1010.9 1006.3 0.0
09/04:00am 26.6 23.3 11.5 39 8.9 ESE 20 30 11 16 1010.6 1006.0 0.0
09/03:30am 26.8 22.9 12.1 40 8.7 ESE 24 30 13 16 1010.6 1006.0 0.0
09/03:00am 27.1 23.2 12.0 39 8.9 SE 24 35 13 19 1010.4 1005.8 0.0
09/02:30am 27.3 24.0 11.7 37 9.2 SSE 20 28 11 15 1010.6 1006.0 0.0
09/02:00am 28.9 27.7 11.5 34 10.3 E 9 13 5 7 1010.5 1005.9 0.0
09/01:30am 29.6 28.3 11.2 32 10.9 ESE 9 15 5 8 1010.2 1005.6 0.0
09/01:00am 29.6 28.0 11.6 33 10.7 NNW 11 20 6 11 1010.2 1005.6 0.0
09/12:30am 28.8 29.4 11.8 35 10.1 CALM 0 0 0 0 1010.6 1006.0 0.0
09/12:00am 29.1 28.3 11.6 33 10.4 ESE 7 11 4 6 1010.3 1005.7 0.0
 
Date/Time
WST
Temp
°C
App
Temp
°C
Dew
Point
°C
Rel
Hum
%
Delta-T
°C
Wind Press
QNH
hPa
Press
MSL
hPa
Rain since
9am
mm
Dir  Spd
km/h
Gust
km/h
Spd
kts
Gust
kts
08/11:30pm 29.7 27.8 11.7 33 10.7 ESE 13 15 7 8 1010.5 1005.9 0.0
08/11:00pm 30.1 30.4 12.1 33 10.8 S 2 11 1 6 1010.5 1005.9 0.0
08/10:30pm 30.9 27.7 11.3 30 11.6 ENE 19 26 10 14 1010.4 1005.8 0.0
08/10:00pm 30.7 26.8 12.1 32 11.2 E 24 35 13 19 1009.8 1005.2 0.0
08/09:30pm 31.3 26.3 12.2 31 11.5 ENE 30 41 16 22 1009.7 1005.1 0.0
08/09:00pm 31.2 27.3 12.1 31 11.5 ENE 24 35 13 19 1009.9 1005.3 0.0
08/08:30pm 31.7 27.8 12.0 30 11.9 E 24 33 13 18 1009.9 1005.3 0.0
08/08:00pm 31.7 28.5 13.0 32 11.5 E 22 28 12 15 1010.0 1005.4 0.0
08/07:30pm 31.5 29.3 13.3 33 11.2 ENE 17 22 9 12 1009.9 1005.3 0.0
08/07:00pm 31.3 30.1 14.0 35 10.7 S 13 15 7 8 1010.4 1005.8 0.0
08/06:30pm 31.6 27.9 13.8 33 11.0 W 26 41 14 22 1010.9 1006.3 0.0
08/06:00pm 33.6 30.5 11.5 26 13.3 NE 19 26 10 14 1009.7 1005.1 0.0
08/05:30pm 34.9 31.9 10.7 23 14.5 NE 17 28 9 15 1009.0 1004.4 0.0
08/05:00pm 36.4 33.9 9.8 20 15.8 ESE 13 24 7 13 1008.5 1003.8 0.0
08/04:30pm 36.7 32.4 9.3 19 16.2 ESE 22 32 12 17 1007.5 1002.9 0.0
08/04:00pm 37.7 33.6 10.1 19 16.6 ESE 22 32 12 17 1007.4 1002.8 0.0
08/03:30pm 37.2 33.9 9.7 19 16.4 ESE 17 26 9 14 1007.8 1003.2 0.0
08/03:00pm 37.1 34.6 9.6 19 16.4 ESE 13 22 7 12 1008.2 1003.6 0.0
08/02:30pm 37.9 35.7 9.5 18 16.9 SE 11 24 6 13 1008.7 1004.1 0.0
08/02:00pm 37.6 35.0 9.2 18 16.8 SE 13 22 7 12 1009.1 1004.5 0.0
08/01:30pm 37.0 35.0 10.3 20 16.0 ENE 11 17 6 9 1009.7 1005.1 0.0
08/01:00pm 35.5 33.4 9.8 21 15.2 ENE 11 19 6 10 1010.3 1005.7 0.0
08/12:30pm 35.5 32.3 9.8 21 15.2 NNE 17 24 9 13 1010.5 1005.9 0.0
08/12:00pm 35.4 31.6 9.7 21 15.2 NE 20 32 11 17 1010.8 1006.2 0.0
08/11:30am 36.3 32.5 9.8 20 15.7 NNE 20 32 11 17 1011.0 1006.4 0.0
08/11:00am 35.1 32.0 10.2 22 14.8 NNE 17 28 9 15 1011.4 1006.8 0.0
08/10:30am 35.4 31.8 9.7 21 15.2 NNE 19 26 10 14 1011.8 1007.3 0.0
08/10:00am 34.3 31.6 10.2 23 14.3 NE 15 28 8 15 1012.1 1007.5 0.0
08/09:30am 33.0 29.2 9.7 24 13.6 NE 20 32 11 17 1012.3 1007.7 0.0
08/09:00am 32.5 29.3 9.9 25 13.2 NE 17 26 9 14 1012.5 1007.9 0.0
08/08:30am 31.8 29.0 9.9 26 12.8 NE 15 20 8 11 1012.7 1008.1 0.0
08/08:00am 31.6 28.5 10.3 27 12.5 ENE 17 30 9 16 1012.8 1008.2 0.0
08/07:30am 31.0 27.4 10.4 28 12.1 ENE 20 28 11 15 1012.9 1008.3 0.0
08/07:00am 29.6 25.9 10.2 30 11.3 ENE 20 35 11 19 1012.9 1008.3 0.0
08/06:30am 29.1 23.2 10.3 31 10.9 E 32 44 17 24 1012.3 1007.7 0.0
08/06:00am 28.7 23.4 9.9 31 10.8 ENE 28 43 15 23 1012.2 1007.6 0.0
08/05:30am 28.1 23.6 9.9 32 10.5 ENE 24 35 13 19 1012.3 1007.7 0.0
08/05:00am 28.2 24.0 9.9 32 10.5 ENE 22 43 12 23 1012.3 1007.7 0.0
08/04:30am 28.1 24.3 9.9 32 10.5 ENE 20 30 11 16 1012.1 1007.5 0.0
08/04:00am 28.5 24.3 9.7 31 10.8 ENE 22 33 12 18 1011.5 1006.9 0.0
08/03:30am 28.5 26.1 10.2 32 10.6 E 13 20 7 11 1011.1 1006.5 0.0
08/03:00am 28.8 25.6 10.0 31 10.9 E 17 26 9 14 1011.1 1006.5 0.0
08/02:30am 28.3 27.6 10.0 32 10.5 NE 4 11 2 6 1010.9 1006.3 0.0
08/02:00am 28.7 24.5 9.9 31 10.8 ESE 22 32 12 17 1010.6 1006.0 0.0
08/01:30am 29.0 24.2 10.2 31 10.9 ESE 26 35 14 19 1010.5 1005.9 0.0
08/01:00am 29.0 24.5 10.2 31 10.9 ESE 24 32 13 17 1010.5 1005.9 0.0
08/12:30am 29.2 24.7 9.9 30 11.2 ESE 24 32 13 17 1010.8 1006.2 0.0
08/12:00am 29.6 25.0 9.7 29 11.5 ESE 24 32 13 17 1011.1 1006.5 0.0
 
Date/Time
WST
Temp
°C
App
Temp
°C
Dew
Point
°C
Rel
Hum
%
Delta-T
°C
Wind Press
QNH
hPa
Press
MSL
hPa
Rain since
9am
mm
Dir  Spd
km/h
Gust
km/h
Spd
kts
Gust
kts
07/11:30pm 30.3 26.1 9.8 28 11.9 ESE 22 28 12 15 1011.4 1006.8 0.0
07/11:00pm 30.3 27.3 10.8 30 11.5 ESE 17 22 9 12 1011.6 1007.1 0.0
07/10:30pm 30.1 28.0 11.1 31 11.2 ESE 13 17 7 9 1012.0 1007.4 0.0
07/10:00pm 30.7 28.2 11.1 30 11.6 ESE 15 17 8 9 1012.4 1007.8 0.0
07/09:30pm 31.5 28.7 11.3 29 12.0 E 17 24 9 13 1012.3 1007.7 0.0
07/09:00pm 31.9 28.7 11.1 28 12.4 E 19 28 10 15 1012.2 1007.6 0.0
07/08:30pm 33.1 28.2 9.8 24 13.7 SE 26 35 14 19 1011.6 1007.1 0.0
07/08:00pm 33.1 29.5 9.8 24 13.7 SE 19 28 10 15 1011.4 1006.8 0.0
07/07:30pm 32.7 30.1 9.5 24 13.5 ESE 13 19 7 10 1011.2 1006.6 0.0
07/07:00pm 33.6 30.2 9.0 22 14.3 ESE 17 24 9 13 1010.9 1006.3 0.0
07/06:30pm 34.7 31.3 7.7 19 15.5 NNE 15 20 8 11 1010.4 1005.8 0.0
07/06:00pm 35.2 31.5 8.1 19 15.6 N 17 24 9 13 1010.0 1005.4 0.0
07/05:30pm 36.0 32.9 8.7 19 15.9 N 15 24 8 13 1009.9 1005.3 0.0
07/05:00pm 38.2 34.1 8.0 16 17.6 S 19 28 10 15 1009.3 1004.7 0.0
07/04:30pm 38.3 35.4 8.1 16 17.6 SSE 13 22 7 12 1009.0 1004.4 0.0
07/04:00pm 38.5 36.0 8.2 16 17.8 SE 11 19 6 10 1008.8 1004.2 0.0
07/03:30pm 38.7 34.5 7.4 15 18.2 SSE 19 26 10 14 1008.9 1004.3 0.0
07/03:00pm 38.0 35.8 7.8 16 17.6 ENE 9 20 5 11 1009.2 1004.6 0.0
07/02:30pm 38.0 35.4 7.8 16 17.5 NE 11 19 6 10 1009.4 1004.8 0.0
07/02:00pm 37.7 34.9 8.5 17 17.1 ENE 13 19 7 10 1009.7 1005.1 0.0
07/01:30pm 38.5 36.2 9.1 17 17.4 NE 11 17 6 9 1010.2 1005.6 0.0
07/01:00pm 37.6 35.7 9.2 18 16.8 SE 9 15 5 8 1010.4 1005.8 0.0
07/12:30pm 37.3 34.1 9.8 19 16.4 ESE 17 24 9 13 1010.8 1006.2 0.0
07/12:00pm 36.3 33.1 9.8 20 15.8 E 17 28 9 15 1011.2 1006.6 0.0
07/11:30am 36.4 33.2 11.9 23 15.0 SE 20 30 11 16 1011.3 1006.7 0.0
07/11:00am 34.5 31.2 11.6 25 13.9 SE 20 33 11 18 1012.0 1007.4 0.0

Other formats

Comma delimited format used in spreadsheet applications
http://www.bom.gov.au/fwo/IDW60801/IDW60801.94461.axf

JavaScript Object Notation format (JSON) in row-major order
http://www.bom.gov.au/fwo/IDW60801/IDW60801.94461.json

Data quality

Most of these data are generated automatically and are frequently updated. Quality checks on data are not normally performed. It is possible for incorrect values to appear. Refer to information at About Latest Weather Observations and please check the disclaimer before using these data.